createdAt,value
2022-08-03T00:00:41.256Z,22.24
2022-08-03T00:03:09.800Z,22.14
2022-08-03T00:05:38.530Z,22.08
2022-08-03T00:08:07.135Z,22.12
2022-08-03T00:10:35.690Z,22.12
2022-08-03T00:13:05.769Z,22.12
2022-08-03T00:15:35.437Z,22.09
2022-08-03T00:18:03.949Z,22.02
2022-08-03T00:20:32.384Z,22.02
2022-08-03T00:23:00.803Z,22.06
2022-08-03T00:25:29.239Z,21.96
2022-08-03T00:27:57.715Z,21.98
2022-08-03T00:30:30.767Z,21.93
2022-08-03T00:33:00.645Z,21.93
2022-08-03T00:35:36.686Z,21.87
2022-08-03T00:38:06.417Z,21.82
2022-08-03T00:40:35.619Z,21.86
2022-08-03T00:43:07.166Z,21.85
2022-08-03T00:45:40.672Z,21.81
2022-08-03T00:48:30.162Z,21.80
2022-08-03T00:51:04.554Z,21.68
2022-08-03T00:53:35.922Z,21.70
2022-08-03T00:56:07.373Z,21.65
2022-08-03T00:58:35.889Z,21.60
2022-08-03T01:01:08.869Z,21.52
2022-08-03T01:03:37.318Z,21.55
2022-08-03T01:06:15.929Z,21.54
2022-08-03T01:08:53.544Z,21.47
2022-08-03T01:12:00.608Z,21.39
2022-08-03T01:14:34.957Z,21.38
2022-08-03T01:17:16.398Z,21.29
2022-08-03T01:19:54.950Z,21.29
2022-08-03T01:23:01.896Z,21.24
2022-08-03T01:25:54.320Z,21.18
2022-08-03T01:28:58.460Z,21.17
2022-08-03T01:31:36.062Z,21.13
2022-08-03T01:34:30.411Z,21.10
2022-08-03T01:37:02.079Z,21.05
2022-08-03T01:39:34.441Z,21.00
2022-08-03T01:42:08.943Z,21.01
2022-08-03T01:44:42.778Z,20.98
2022-08-03T01:47:13.897Z,20.89
2022-08-03T01:49:46.612Z,20.91
2022-08-03T01:52:20.009Z,20.87
2022-08-03T01:54:54.191Z,20.88
2022-08-03T01:57:26.441Z,20.89
2022-08-03T01:59:58.861Z,20.82
2022-08-03T02:02:34.224Z,20.73
2022-08-03T02:05:11.023Z,20.72
2022-08-03T02:07:43.030Z,20.67
2022-08-03T02:10:15.254Z,20.69
2022-08-03T02:12:50.975Z,20.65
2022-08-03T02:15:22.942Z,20.58
2022-08-03T02:17:55.952Z,20.59
2022-08-03T02:20:26.258Z,20.55
2022-08-03T02:22:55.235Z,20.55
2022-08-03T02:25:23.878Z,20.56
2022-08-03T02:27:59.209Z,20.48
2022-08-03T02:30:37.857Z,20.40
2022-08-03T02:33:13.331Z,20.44
2022-08-03T02:35:44.286Z,20.31
2022-08-03T02:38:16.411Z,20.28
2022-08-03T02:40:47.290Z,20.26
2022-08-03T02:43:22.723Z,20.19
2022-08-03T02:45:54.847Z,20.22
2022-08-03T02:48:33.751Z,20.16
2022-08-03T02:51:06.130Z,20.20
2022-08-03T02:53:35.925Z,20.11
2022-08-03T02:56:10.396Z,20.12
2022-08-03T02:58:40.494Z,20.12
2022-08-03T03:01:09.818Z,20.07
2022-08-03T03:03:44.927Z,20.12
2022-08-03T03:06:15.225Z,20.03
2022-08-03T03:08:44.480Z,19.97
2022-08-03T03:11:16.485Z,19.81
2022-08-03T03:13:47.507Z,19.84
2022-08-03T03:16:17.469Z,19.87
2022-08-03T03:18:50.657Z,19.82
2022-08-03T03:21:22.949Z,19.75
2022-08-03T03:23:53.933Z,19.70
2022-08-03T03:26:22.907Z,19.66
2022-08-03T03:28:52.314Z,19.62
2022-08-03T03:31:21.101Z,19.60
2022-08-03T03:33:51.417Z,19.53
2022-08-03T03:36:20.159Z,19.53
2022-08-03T03:38:48.752Z,19.53
2022-08-03T03:41:17.644Z,19.52
2022-08-03T03:43:46.591Z,19.46
2022-08-03T03:46:18.286Z,19.48
2022-08-03T03:48:46.854Z,19.48
2022-08-03T03:51:17.566Z,19.45
2022-08-03T03:53:57.401Z,19.42
2022-08-03T03:56:26.439Z,19.34
2022-08-03T03:58:56.218Z,19.39
2022-08-03T04:01:25.609Z,19.41
2022-08-03T04:03:54.077Z,19.41
2022-08-03T04:06:41.763Z,19.35
2022-08-03T04:09:29.013Z,19.37
2022-08-03T04:12:02.794Z,19.45
2022-08-03T04:14:36.232Z,19.54
2022-08-03T04:17:10.367Z,19.57
2022-08-03T04:19:46.249Z,19.66
2022-08-03T04:22:20.558Z,19.79
2022-08-03T04:24:54.977Z,19.93
2022-08-03T04:27:28.490Z,20.05
2022-08-03T04:29:58.895Z,20.17
2022-08-03T04:32:29.655Z,20.21
2022-08-03T04:34:58.743Z,20.33
2022-08-03T04:37:39.511Z,20.38
2022-08-03T04:40:14.476Z,20.56
2022-08-03T04:42:45.931Z,20.57
2022-08-03T04:45:16.679Z,20.70
2022-08-03T04:47:45.897Z,20.78
2022-08-03T04:50:20.885Z,20.90
2022-08-03T04:53:07.307Z,21.07
2022-08-03T04:55:37.061Z,21.19
2022-08-03T04:58:06.456Z,21.24
2022-08-03T05:00:35.094Z,21.32
2022-08-03T05:03:03.567Z,21.46
2022-08-03T05:05:50.166Z,21.51
2022-08-03T05:08:28.151Z,21.63
2022-08-03T05:10:59.383Z,21.73
2022-08-03T05:13:28.507Z,21.87
2022-08-03T05:15:57.079Z,21.95
2022-08-03T05:18:25.547Z,22.00
2022-08-03T05:20:54.088Z,22.17
2022-08-03T05:23:23.946Z,22.40
2022-08-03T05:25:52.397Z,22.44
2022-08-03T05:28:20.987Z,22.56
2022-08-03T05:30:49.490Z,22.72
2022-08-03T05:33:18.157Z,22.69
2022-08-03T05:36:02.062Z,22.84
2022-08-03T05:38:35.566Z,22.87
2022-08-03T05:41:23.643Z,22.72
2022-08-03T05:43:56.678Z,22.62
2022-08-03T05:46:25.295Z,22.67
2022-08-03T05:48:54.012Z,22.97
2022-08-03T05:51:23.519Z,23.13
2022-08-03T05:53:53.625Z,23.19
2022-08-03T05:56:26.437Z,23.53
2022-08-03T05:58:56.019Z,23.68
2022-08-03T06:01:24.592Z,23.75
2022-08-03T06:03:53.651Z,23.69
2022-08-03T06:06:22.465Z,23.69
2022-08-03T06:08:50.967Z,23.81
2022-08-03T06:11:20.921Z,24.11
2022-08-03T06:13:49.438Z,24.15
2022-08-03T06:16:17.889Z,24.39
2022-08-03T06:18:47.067Z,24.49
2022-08-03T06:21:16.381Z,24.45
2022-08-03T06:23:54.829Z,24.38
2022-08-03T06:26:29.418Z,24.57
2022-08-03T06:28:58.047Z,24.67
2022-08-03T06:31:32.669Z,24.68
2022-08-03T06:34:32.236Z,24.80
2022-08-03T06:36:58.533Z,24.84
2022-08-03T06:39:31.478Z,24.96
2022-08-03T06:42:03.727Z,25.12
2022-08-03T06:44:32.355Z,25.34
2022-08-03T06:47:00.963Z,25.31
2022-08-03T06:49:29.554Z,25.78
2022-08-03T06:52:05.826Z,26.19
2022-08-03T06:54:36.918Z,26.47
2022-08-03T06:57:08.233Z,26.69
2022-08-03T07:00:10.294Z,26.93
2022-08-03T07:02:26.792Z,27.12
2022-08-03T07:04:57.784Z,27.27
2022-08-03T07:07:26.558Z,27.48
2022-08-03T07:09:57.155Z,27.75
2022-08-03T07:12:30.310Z,27.66
2022-08-03T07:15:02.617Z,27.93
2022-08-03T07:17:37.011Z,28.17
2022-08-03T07:20:08.892Z,28.30
2022-08-03T07:22:37.541Z,28.49
2022-08-03T07:25:07.298Z,28.89
2022-08-03T07:27:38.251Z,29.02
2022-08-03T07:30:09.692Z,29.34
2022-08-03T07:32:50.318Z,29.68
2022-08-03T07:35:24.659Z,30.04
2022-08-03T07:37:55.019Z,30.05
2022-08-03T07:40:24.008Z,30.11
2022-08-03T07:43:02.251Z,30.75
2022-08-03T07:45:31.999Z,30.87
2022-08-03T07:48:01.296Z,31.24
2022-08-03T07:50:30.458Z,31.28
2022-08-03T07:52:59.767Z,31.04
2022-08-03T07:55:30.267Z,31.65
2022-08-03T07:58:06.141Z,31.75
2022-08-03T08:00:35.008Z,32.06
2022-08-03T08:03:52.431Z,32.12
2022-08-03T08:07:22.867Z,32.31
2022-08-03T08:10:35.328Z,32.26
2022-08-03T08:13:06.107Z,32.82
2022-08-03T08:15:34.711Z,33.13
2022-08-03T08:18:03.594Z,33.20
2022-08-03T08:20:37.879Z,33.23
2022-08-03T08:23:19.942Z,32.51
2022-08-03T08:25:57.935Z,33.05
2022-08-03T08:28:32.128Z,33.24
2022-08-03T08:31:04.076Z,33.54
2022-08-03T08:34:01.493Z,33.58
2022-08-03T08:36:23.964Z,33.61
2022-08-03T08:38:52.496Z,33.73
2022-08-03T08:41:21.001Z,33.86
2022-08-03T08:43:51.329Z,34.12
2022-08-03T08:46:23.855Z,33.94
2022-08-03T08:48:54.720Z,34.28
2022-08-03T08:51:54.545Z,34.36
2022-08-03T08:54:21.876Z,34.18
2022-08-03T08:56:54.543Z,34.01
2022-08-03T08:59:26.302Z,34.33
2022-08-03T09:01:58.789Z,34.40
2022-08-03T09:04:29.920Z,33.95
2022-08-03T09:07:18.783Z,34.04
2022-08-03T09:10:11.072Z,33.88
2022-08-03T09:12:42.574Z,33.75
2022-08-03T09:15:25.275Z,33.39
2022-08-03T09:17:56.886Z,33.42
2022-08-03T09:20:28.679Z,33.48
2022-08-03T09:24:00.633Z,33.68
2022-08-03T09:37:00.617Z,35.32
2022-08-03T09:40:08.319Z,35.46
2022-08-03T09:45:33.605Z,35.92
2022-08-03T09:56:45.417Z,36.73
2022-08-03T10:00:55.466Z,37.53
2022-08-03T10:05:00.423Z,37.91
2022-08-03T10:09:01.815Z,37.80
2022-08-03T10:13:00.822Z,37.72
2022-08-03T10:16:48.876Z,38.25
2022-08-03T10:20:52.813Z,37.25
2022-08-03T10:23:40.926Z,36.17
2022-08-03T10:26:14.158Z,36.46
2022-08-03T10:28:54.113Z,37.08
2022-08-03T10:31:25.905Z,37.67
2022-08-03T10:33:59.541Z,38.65
2022-08-03T10:36:34.207Z,39.53
2022-08-03T10:39:04.400Z,39.78
2022-08-03T10:41:48.180Z,39.61
2022-08-03T10:44:21.279Z,40.02
2022-08-03T10:46:51.874Z,40.29
2022-08-03T10:49:34.264Z,39.67
2022-08-03T10:52:13.866Z,39.33
2022-08-03T10:55:13.329Z,38.59
2022-08-03T10:57:49.623Z,39.26
2022-08-03T11:00:20.513Z,39.86
2022-08-03T11:03:10.483Z,40.23
2022-08-03T11:05:45.471Z,38.20
2022-08-03T11:08:28.940Z,39.87
2022-08-03T11:11:05.537Z,40.89
2022-08-03T11:13:34.509Z,41.66
2022-08-03T11:16:26.156Z,40.64
2022-08-03T11:19:00.926Z,39.53
2022-08-03T11:21:58.128Z,40.80
2022-08-03T11:25:00.871Z,41.28
2022-08-03T11:27:33.903Z,41.20
2022-08-03T11:30:07.450Z,41.42
2022-08-03T11:33:49.287Z,41.98
2022-08-03T11:38:03.095Z,41.29
2022-08-03T11:41:03.391Z,41.79
2022-08-03T11:43:52.962Z,40.64
2022-08-03T11:46:28.419Z,40.25
2022-08-03T11:49:10.531Z,40.21
2022-08-03T11:51:41.042Z,41.13
2022-08-03T11:54:11.352Z,41.42
2022-08-03T11:56:48.955Z,42.29
2022-08-03T11:59:22.655Z,42.36
2022-08-03T12:01:51.945Z,42.10
2022-08-03T12:04:20.540Z,42.88
2022-08-03T12:07:00.717Z,42.12
2022-08-03T12:09:29.264Z,40.32
2022-08-03T12:12:00.345Z,41.31
2022-08-03T12:14:49.465Z,42.12
2022-08-03T12:17:23.291Z,41.74
2022-08-03T12:19:51.931Z,41.57
2022-08-03T12:22:33.392Z,41.20
2022-08-03T12:25:01.967Z,42.02
2022-08-03T12:27:31.947Z,41.70
2022-08-03T12:30:01.946Z,42.38
2022-08-03T12:32:32.120Z,42.86
2022-08-03T12:35:04.342Z,43.40
2022-08-03T12:37:33.742Z,43.46
2022-08-03T12:40:10.485Z,43.18
2022-08-03T12:42:41.627Z,42.26
2022-08-03T12:45:25.772Z,41.40
2022-08-03T12:47:56.939Z,39.76
2022-08-03T12:50:31.362Z,40.34
2022-08-03T12:53:01.988Z,40.31
2022-08-03T12:55:56.724Z,41.00
2022-08-03T12:58:36.602Z,41.76
2022-08-03T13:01:09.564Z,41.10
2022-08-03T13:03:49.597Z,40.46
2022-08-03T13:06:24.092Z,41.60
2022-08-03T13:09:05.295Z,42.03
2022-08-03T13:11:57.491Z,42.01
2022-08-03T13:14:24.165Z,41.88
2022-08-03T13:16:58.408Z,39.89
2022-08-03T13:19:27.337Z,41.27
2022-08-03T13:22:03.886Z,41.75
2022-08-03T13:24:34.759Z,42.28
2022-08-03T13:28:01.270Z,42.89
2022-08-03T13:29:55.881Z,43.00
2022-08-03T13:32:25.250Z,43.03
2022-08-03T13:34:53.875Z,42.81
2022-08-03T13:37:22.765Z,42.98
2022-08-03T13:39:59.147Z,42.14
2022-08-03T13:42:31.322Z,42.03
2022-08-03T13:45:02.462Z,40.30
2022-08-03T13:47:31.287Z,41.72
2022-08-03T13:50:02.462Z,40.20
2022-08-03T13:52:37.122Z,40.86
2022-08-03T13:55:08.194Z,41.33
2022-08-03T13:58:02.453Z,41.68
2022-08-03T14:00:29.317Z,41.17
2022-08-03T14:06:10.111Z,40.49
2022-08-03T14:08:38.550Z,41.20
2022-08-03T14:11:07.361Z,40.69
2022-08-03T14:14:39.012Z,41.14
2022-08-03T14:18:15.624Z,41.38
2022-08-03T14:22:06.487Z,40.94
2022-08-03T14:24:54.878Z,39.21
2022-08-03T14:27:25.988Z,37.83
2022-08-03T14:29:56.682Z,37.68
2022-08-03T14:32:27.270Z,37.71
2022-08-03T14:34:55.735Z,37.35
2022-08-03T14:37:24.282Z,37.11
2022-08-03T14:40:00.789Z,37.61
2022-08-03T14:42:29.812Z,37.94
2022-08-03T14:45:03.454Z,37.22
2022-08-03T14:49:00.856Z,37.02
2022-08-03T14:50:37.282Z,36.79
2022-08-03T14:53:09.320Z,36.08
2022-08-03T14:55:38.994Z,36.26
2022-08-03T14:58:21.498Z,35.81
2022-08-03T15:00:52.579Z,35.17
2022-08-03T15:03:24.705Z,35.22
2022-08-03T15:05:54.898Z,35.45
2022-08-03T15:08:25.367Z,35.33
2022-08-03T15:10:54.766Z,35.45
2022-08-03T15:13:32.500Z,35.08
2022-08-03T15:16:09.172Z,34.90
2022-08-03T15:18:39.099Z,35.15
2022-08-03T15:21:08.370Z,35.33
2022-08-03T15:23:58.073Z,35.31
2022-08-03T15:26:30.811Z,35.09
2022-08-03T15:29:03.603Z,35.05
2022-08-03T15:31:32.150Z,35.20
2022-08-03T15:34:02.128Z,34.85
2022-08-03T15:36:30.588Z,34.39
2022-08-03T15:38:59.365Z,33.96
2022-08-03T15:41:28.060Z,34.41
2022-08-03T15:43:56.705Z,34.64
2022-08-03T15:46:29.896Z,34.63
2022-08-03T15:48:59.065Z,34.30
2022-08-03T15:51:29.091Z,34.20
2022-08-03T15:53:58.306Z,34.46
2022-08-03T15:56:27.158Z,34.57
2022-08-03T15:59:03.614Z,34.71
2022-08-03T16:01:42.394Z,34.33
2022-08-03T16:04:10.894Z,34.64
2022-08-03T16:06:40.980Z,34.32
2022-08-03T16:09:23.369Z,33.59
2022-08-03T16:11:58.829Z,33.98
2022-08-03T16:14:32.085Z,34.51
2022-08-03T16:17:05.355Z,34.98
2022-08-03T16:19:33.974Z,35.47
2022-08-03T16:22:05.660Z,35.56
2022-08-03T16:24:35.453Z,35.59
2022-08-03T16:27:06.482Z,35.89
2022-08-03T16:29:46.237Z,35.56
2022-08-03T16:32:14.855Z,35.33
2022-08-03T16:34:43.807Z,35.39
2022-08-03T16:37:36.925Z,35.54
2022-08-03T16:40:02.329Z,35.69
2022-08-03T16:42:31.208Z,36.57
2022-08-03T16:44:59.702Z,36.55
2022-08-03T16:47:28.177Z,36.88
2022-08-03T16:49:58.182Z,37.13
2022-08-03T16:52:29.611Z,37.20
2022-08-03T16:54:58.236Z,35.64
2022-08-03T16:57:31.887Z,35.09
2022-08-03T17:00:33.971Z,34.52
2022-08-03T17:03:12.526Z,34.23
2022-08-03T17:05:50.843Z,33.61
2022-08-03T17:08:27.294Z,33.31
2022-08-03T17:10:57.303Z,33.17
2022-08-03T17:13:38.878Z,32.94
2022-08-03T17:16:12.143Z,32.79
2022-08-03T17:18:53.958Z,32.53
2022-08-03T17:21:29.558Z,32.45
2022-08-03T17:24:12.018Z,32.30
2022-08-03T17:26:44.966Z,32.31
2022-08-03T17:29:17.983Z,32.06
2022-08-03T17:31:49.731Z,31.86
2022-08-03T17:34:19.115Z,31.91
2022-08-03T17:37:05.775Z,31.80
2022-08-03T17:40:20.893Z,31.95
2022-08-03T17:44:08.172Z,32.46
2022-08-03T17:46:11.154Z,33.12
2022-08-03T17:48:41.948Z,33.82
2022-08-03T17:51:17.842Z,34.24
2022-08-03T17:53:56.526Z,34.30
2022-08-03T17:56:46.418Z,34.68
2022-08-03T17:59:52.479Z,34.73
2022-08-03T18:02:55.459Z,34.08
2022-08-03T18:06:10.404Z,33.29
2022-08-03T18:08:28.244Z,32.42
2022-08-03T18:11:14.272Z,31.71
2022-08-03T18:13:57.967Z,31.20
2022-08-03T18:16:40.752Z,30.88
2022-08-03T18:20:03.683Z,30.49
2022-08-03T18:22:22.107Z,30.06
2022-08-03T18:25:19.612Z,29.70
2022-08-03T18:28:29.560Z,29.40
2022-08-03T18:31:59.994Z,29.13
2022-08-03T18:34:32.885Z,28.91
2022-08-03T18:37:19.476Z,28.69
2022-08-03T18:40:11.704Z,28.42
2022-08-03T18:43:08.885Z,28.20
2022-08-03T18:45:56.007Z,28.05
2022-08-03T18:49:11.417Z,27.84
2022-08-03T18:51:43.210Z,27.71
2022-08-03T18:57:20.802Z,27.40
2022-08-03T19:00:10.560Z,27.27
2022-08-03T19:02:50.198Z,27.11
2022-08-03T19:05:24.606Z,27.05
2022-08-03T19:08:21.542Z,26.95
2022-08-03T19:11:06.047Z,26.85
2022-08-03T19:13:50.452Z,26.69
2022-08-03T19:16:34.370Z,26.61
2022-08-03T19:19:03.423Z,26.53
2022-08-03T19:21:37.571Z,26.49
2022-08-03T19:24:10.282Z,26.39
2022-08-03T19:26:41.301Z,26.32
2022-08-03T19:29:15.013Z,26.26
2022-08-03T19:31:58.680Z,26.22
2022-08-03T19:34:32.648Z,26.14
2022-08-03T19:37:04.523Z,26.07
2022-08-03T19:39:36.129Z,25.98
2022-08-03T19:42:23.171Z,25.91
2022-08-03T19:44:56.280Z,25.86
2022-08-03T19:47:35.121Z,25.82
2022-08-03T19:50:13.994Z,25.76
2022-08-03T19:52:50.458Z,25.67
2022-08-03T19:55:19.724Z,25.63
2022-08-03T19:57:54.645Z,25.52
2022-08-03T20:00:30.533Z,25.46
2022-08-03T20:03:06.100Z,25.40
2022-08-03T20:08:44.173Z,25.34
2022-08-03T20:11:13.296Z,25.31
2022-08-03T20:13:45.163Z,25.26
2022-08-03T20:16:16.867Z,25.29
2022-08-03T20:18:46.190Z,25.28
2022-08-03T20:21:18.665Z,25.26
2022-08-03T20:24:01.796Z,25.20
2022-08-03T20:26:33.581Z,25.19
2022-08-03T20:29:09.066Z,25.16
2022-08-03T20:31:38.754Z,25.09
2022-08-03T20:34:09.135Z,25.06
2022-08-03T20:36:38.127Z,25.03
2022-08-03T20:39:09.111Z,24.98
2022-08-03T20:41:38.909Z,24.94
2022-08-03T20:44:07.800Z,24.92
2022-08-03T20:46:53.484Z,24.83
2022-08-03T20:49:24.948Z,24.75
2022-08-03T20:51:55.221Z,24.69
2022-08-03T20:54:30.626Z,24.63
2022-08-03T20:57:03.855Z,24.53
2022-08-03T20:59:50.420Z,24.47
2022-08-03T21:02:28.912Z,24.39
2022-08-03T21:05:03.646Z,24.35
2022-08-03T21:07:45.513Z,24.31
2022-08-03T21:10:41.974Z,24.24
2022-08-03T21:13:00.958Z,27.52
2022-08-03T21:13:10.224Z,25.38
2022-08-03T21:13:18.862Z,24.19
2022-08-03T21:16:03.220Z,24.19
2022-08-03T21:18:47.412Z,24.15
2022-08-03T21:21:18.665Z,24.09
2022-08-03T21:23:52.838Z,24.09
2022-08-03T21:26:25.699Z,24.09
2022-08-03T21:28:57.662Z,24.01
2022-08-03T21:31:27.838Z,24.03
2022-08-03T21:33:59.700Z,23.97
2022-08-03T21:36:31.793Z,23.98
2022-08-03T21:39:02.350Z,24.00
2022-08-03T21:41:33.790Z,23.95
2022-08-03T21:44:03.892Z,23.98
2022-08-03T21:46:38.034Z,23.98
2022-08-03T21:50:05.167Z,23.95
2022-08-03T21:52:03.862Z,23.93
2022-08-03T21:54:37.630Z,23.88
2022-08-03T21:57:19.856Z,23.88
2022-08-03T21:59:55.105Z,23.83
2022-08-03T22:02:30.100Z,23.82
2022-08-03T22:05:04.753Z,23.79
2022-08-03T22:07:35.266Z,23.75
2022-08-03T22:10:07.541Z,23.67
2022-08-03T22:12:40.809Z,23.59
2022-08-03T22:15:13.588Z,23.52
2022-08-03T22:17:54.527Z,23.47
2022-08-03T22:20:26.285Z,23.40
2022-08-03T22:22:57.831Z,23.32
2022-08-03T22:25:30.457Z,23.30
2022-08-03T22:28:03.230Z,23.24
2022-08-03T22:30:33.066Z,23.25
2022-08-03T22:33:03.160Z,23.25
2022-08-03T22:35:44.321Z,23.23
2022-08-03T22:38:17.141Z,23.18
2022-08-03T22:40:48.067Z,23.17
2022-08-03T22:43:18.247Z,23.11
2022-08-03T22:46:10.539Z,23.11
2022-08-03T22:48:40.846Z,23.12
2022-08-03T22:51:11.240Z,23.14
2022-08-03T22:53:41.324Z,23.13
2022-08-03T22:56:10.106Z,23.09
2022-08-03T22:58:39.965Z,23.13
2022-08-03T23:01:12.700Z,23.15
2022-08-03T23:04:00.341Z,23.16
2022-08-03T23:06:36.527Z,23.14
2022-08-03T23:09:10.276Z,23.15
2022-08-03T23:11:45.497Z,23.14
2022-08-03T23:14:19.756Z,23.14
2022-08-03T23:16:51.183Z,23.13
2022-08-03T23:19:25.309Z,23.09
2022-08-03T23:22:02.928Z,23.13
2022-08-03T23:24:36.938Z,23.11
2022-08-03T23:27:07.572Z,23.13
2022-08-03T23:29:39.523Z,23.06
2022-08-03T23:32:09.101Z,23.09
2022-08-03T23:34:58.750Z,23.07
2022-08-03T23:37:27.850Z,23.00
2022-08-03T23:39:59.494Z,22.98
2022-08-03T23:42:30.007Z,22.97
2022-08-03T23:45:05.800Z,22.90
2022-08-03T23:47:45.950Z,22.89
2022-08-03T23:50:14.949Z,22.86
2022-08-03T23:52:56.778Z,22.80
2022-08-03T23:55:46.058Z,22.74
2022-08-03T23:58:29.621Z,22.72
